Andrews Air Force Base
KADW : now visible

Airfield :











YOU CAN JOIN US ON...

 
LOGIN :

Register | Disclaimer

   EN    FR    IT 

 









Legend :    VFR   Marginal VFR   IFR   Intensive IFR   Very Intensive IFR
Visi :
Ceiling :
>= 8 km
>= 3000ft
5 to 8 km
1000 to 3000 ft
1500m to 5 km
500 to 1000 ft
800 to 1500m
200 to 500 ft
< 800m
< 200 ft
Symbols :   Thunderstorms  Fog  Heavy snow  Heavy precipitations  Wind > 20 kt







- Airport Elevation : 280 ft


KADW - Andrews Air Force Base

CURRENT METAR :
  • 212056Z AUTO 00000KT 10SM CLR 30/14 A3015 RMK AO2 SLP215 T03010138 57013 $

TAF TAF KADW
Valid from the 21 at 17:00 until the 22 at 23:00 UTC


211710Z 2117/2223 22005KT 9999 FEW045 QNH3018INS
BECMG 2120/2121 15006KT 9999 OVC045 QNH3017INS
BECMG 2205/2206 20003KT 9999 OVC040 QNH3011INS
TEMPO 2210/2212 19003KT 8000 BR BKN025 OVC040 TX31/2119Z TN19/2210Z
No reported NOTAMs for that airfield.



MET'MAP, your aeronautical weather chart ! - Copyright ORBIFLY December 2007 - Disclaimer

ORBIFLY MET'MAP TEAM :

Programming & Development : Alexandra Zaïnal
Concept & Development : Baudouin d'Aumeries
Co-Development & Prog : Marc-Olivier Méhu
Technical & hardware support : Manuel Goepfert

Contact : metmap@orbifly.com




SOURCES & CREDITS :

   NOAA       Earth
Advisory